sensor_id;sensor_type;location;lat;lon;timestamp;P1;durP1;ratioP1;P2;durP2;ratioP2
71856;SDS011;63344;46.980;28.882;2024-01-06T00:02:07;24.30;;;9.90;;
71856;SDS011;63344;46.980;28.882;2024-01-06T00:04:35;23.20;;;10.13;;
71856;SDS011;63344;46.980;28.882;2024-01-06T00:07:04;21.05;;;10.27;;
71856;SDS011;63344;46.980;28.882;2024-01-06T00:09:34;19.38;;;9.15;;
71856;SDS011;63344;46.980;28.882;2024-01-06T00:12:01;18.20;;;8.75;;
71856;SDS011;63344;46.980;28.882;2024-01-06T00:14:34;19.38;;;8.73;;
71856;SDS011;63344;46.980;28.882;2024-01-06T00:17:02;21.63;;;9.88;;
71856;SDS011;63344;46.980;28.882;2024-01-06T00:19:29;20.00;;;8.90;;
71856;SDS011;63344;46.980;28.882;2024-01-06T00:21:57;15.88;;;7.95;;
71856;SDS011;63344;46.980;28.882;2024-01-06T00:27:16;18.88;;;9.25;;
71856;SDS011;63344;46.980;28.882;2024-01-06T00:29:43;19.75;;;8.63;;
71856;SDS011;63344;46.980;28.882;2024-01-06T00:32:10;18.90;;;8.70;;
71856;SDS011;63344;46.980;28.882;2024-01-06T00:34:40;18.83;;;9.27;;
71856;SDS011;63344;46.980;28.882;2024-01-06T00:37:11;17.25;;;8.13;;
71856;SDS011;63344;46.980;28.882;2024-01-06T00:39:39;19.13;;;7.82;;
71856;SDS011;63344;46.980;28.882;2024-01-06T00:42:06;17.05;;;8.32;;
71856;SDS011;63344;46.980;28.882;2024-01-06T00:44:35;16.35;;;7.80;;
71856;SDS011;63344;46.980;28.882;2024-01-06T00:47:03;16.50;;;8.77;;
71856;SDS011;63344;46.980;28.882;2024-01-06T00:49:32;18.67;;;8.52;;
71856;SDS011;63344;46.980;28.882;2024-01-06T00:52:01;15.45;;;7.82;;
71856;SDS011;63344;46.980;28.882;2024-01-06T00:54:28;18.70;;;8.75;;
71856;SDS011;63344;46.980;28.882;2024-01-06T00:56:57;19.45;;;8.10;;
71856;SDS011;63344;46.980;28.882;2024-01-06T00:59:24;17.50;;;7.82;;
71856;SDS011;63344;46.980;28.882;2024-01-06T01:01:54;15.95;;;7.85;;
71856;SDS011;63344;46.980;28.882;2024-01-06T01:04:23;18.15;;;8.52;;
71856;SDS011;63344;46.980;28.882;2024-01-06T01:06:50;18.42;;;8.88;;
71856;SDS011;63344;46.980;28.882;2024-01-06T01:09:17;17.48;;;8.50;;
71856;SDS011;63344;46.980;28.882;2024-01-06T01:11:46;15.55;;;7.03;;
71856;SDS011;63344;46.980;28.882;2024-01-06T01:14:15;16.50;;;7.07;;
71856;SDS011;63344;46.980;28.882;2024-01-06T01:16:45;15.00;;;7.95;;
71856;SDS011;63344;46.980;28.882;2024-01-06T01:19:13;14.75;;;7.43;;
71856;SDS011;63344;46.980;28.882;2024-01-06T01:21:40;21.92;;;7.80;;
71856;SDS011;63344;46.980;28.882;2024-01-06T01:24:08;18.13;;;7.70;;
71856;SDS011;63344;46.980;28.882;2024-01-06T01:26:36;15.68;;;7.47;;
71856;SDS011;63344;46.980;28.882;2024-01-06T01:29:04;16.10;;;7.47;;
71856;SDS011;63344;46.980;28.882;2024-01-06T01:31:31;14.52;;;6.95;;
71856;SDS011;63344;46.980;28.882;2024-01-06T01:33:58;15.32;;;7.13;;
71856;SDS011;63344;46.980;28.882;2024-01-06T01:36:25;16.13;;;7.32;;
71856;SDS011;63344;46.980;28.882;2024-01-06T01:38:55;17.33;;;7.78;;
71856;SDS011;63344;46.980;28.882;2024-01-06T01:41:22;15.40;;;6.45;;
71856;SDS011;63344;46.980;28.882;2024-01-06T01:43:50;13.82;;;6.38;;
71856;SDS011;63344;46.980;28.882;2024-01-06T01:46:28;19.48;;;7.57;;
71856;SDS011;63344;46.980;28.882;2024-01-06T01:48:57;15.63;;;7.65;;
71856;SDS011;63344;46.980;28.882;2024-01-06T01:54:36;15.00;;;6.82;;
71856;SDS011;63344;46.980;28.882;2024-01-06T01:57:04;14.45;;;7.47;;
71856;SDS011;63344;46.980;28.882;2024-01-06T02:02:27;14.60;;;6.82;;
71856;SDS011;63344;46.980;28.882;2024-01-06T02:05:00;15.63;;;7.50;;
71856;SDS011;63344;46.980;28.882;2024-01-06T02:07:27;17.17;;;7.80;;
71856;SDS011;63344;46.980;28.882;2024-01-06T02:09:56;17.98;;;6.90;;
71856;SDS011;63344;46.980;28.882;2024-01-06T02:12:24;13.43;;;6.32;;
71856;SDS011;63344;46.980;28.882;2024-01-06T02:14:51;14.35;;;7.40;;
71856;SDS011;63344;46.980;28.882;2024-01-06T02:17:19;13.65;;;6.32;;
71856;SDS011;63344;46.980;28.882;2024-01-06T02:19:54;13.95;;;7.15;;
71856;SDS011;63344;46.980;28.882;2024-01-06T02:22:24;16.40;;;7.10;;
71856;SDS011;63344;46.980;28.882;2024-01-06T02:24:51;14.70;;;6.82;;
71856;SDS011;63344;46.980;28.882;2024-01-06T02:27:23;14.65;;;6.28;;
71856;SDS011;63344;46.980;28.882;2024-01-06T02:29:50;14.50;;;6.68;;
71856;SDS011;63344;46.980;28.882;2024-01-06T02:32:18;16.95;;;7.57;;
71856;SDS011;63344;46.980;28.882;2024-01-06T02:34:46;13.30;;;6.55;;
71856;SDS011;63344;46.980;28.882;2024-01-06T02:37:14;12.18;;;6.47;;
71856;SDS011;63344;46.980;28.882;2024-01-06T02:39:42;16.15;;;6.50;;
71856;SDS011;63344;46.980;28.882;2024-01-06T02:45:32;13.13;;;5.72;;
71856;SDS011;63344;46.980;28.882;2024-01-06T02:48:00;15.68;;;6.10;;
71856;SDS011;63344;46.980;28.882;2024-01-06T02:50:40;13.40;;;5.55;;
71856;SDS011;63344;46.980;28.882;2024-01-06T02:53:08;11.45;;;5.93;;
71856;SDS011;63344;46.980;28.882;2024-01-06T02:55:37;16.75;;;6.32;;
71856;SDS011;63344;46.980;28.882;2024-01-06T02:58:04;10.45;;;5.35;;
71856;SDS011;63344;46.980;28.882;2024-01-06T03:00:34;14.70;;;7.05;;
71856;SDS011;63344;46.980;28.882;2024-01-06T03:03:01;12.93;;;5.68;;
71856;SDS011;63344;46.980;28.882;2024-01-06T03:05:31;15.13;;;6.45;;
71856;SDS011;63344;46.980;28.882;2024-01-06T03:08:00;14.27;;;6.15;;
71856;SDS011;63344;46.980;28.882;2024-01-06T03:10:28;13.68;;;6.13;;
71856;SDS011;63344;46.980;28.882;2024-01-06T03:12:55;14.73;;;6.53;;
71856;SDS011;63344;46.980;28.882;2024-01-06T03:15:30;13.23;;;6.93;;
71856;SDS011;63344;46.980;28.882;2024-01-06T03:17:58;13.80;;;6.07;;
71856;SDS011;63344;46.980;28.882;2024-01-06T03:20:27;12.02;;;6.10;;
71856;SDS011;63344;46.980;28.882;2024-01-06T03:22:54;13.80;;;6.63;;
71856;SDS011;63344;46.980;28.882;2024-01-06T03:25:21;15.57;;;6.35;;
71856;SDS011;63344;46.980;28.882;2024-01-06T03:27:48;14.60;;;6.47;;
71856;SDS011;63344;46.980;28.882;2024-01-06T03:30:17;14.35;;;6.78;;
71856;SDS011;63344;46.980;28.882;2024-01-06T03:32:51;15.18;;;7.57;;
71856;SDS011;63344;46.980;28.882;2024-01-06T03:35:23;12.07;;;6.30;;
71856;SDS011;63344;46.980;28.882;2024-01-06T03:37:51;17.73;;;8.13;;
71856;SDS011;63344;46.980;28.882;2024-01-06T03:40:18;15.50;;;6.75;;
71856;SDS011;63344;46.980;28.882;2024-01-06T03:42:45;14.75;;;6.80;;
71856;SDS011;63344;46.980;28.882;2024-01-06T03:45:15;16.38;;;6.57;;
71856;SDS011;63344;46.980;28.882;2024-01-06T03:47:42;13.52;;;6.80;;
71856;SDS011;63344;46.980;28.882;2024-01-06T03:50:12;14.95;;;7.18;;
71856;SDS011;63344;46.980;28.882;2024-01-06T03:52:40;13.48;;;6.35;;
71856;SDS011;63344;46.980;28.882;2024-01-06T03:55:07;16.15;;;6.80;;
71856;SDS011;63344;46.980;28.882;2024-01-06T03:57:39;16.48;;;7.45;;
71856;SDS011;63344;46.980;28.882;2024-01-06T04:00:06;16.30;;;7.43;;
71856;SDS011;63344;46.980;28.882;2024-01-06T04:02:34;13.45;;;6.50;;
71856;SDS011;63344;46.980;28.882;2024-01-06T04:05:02;15.98;;;7.20;;
71856;SDS011;63344;46.980;28.882;2024-01-06T04:07:33;15.15;;;6.68;;
71856;SDS011;63344;46.980;28.882;2024-01-06T04:10:04;18.58;;;8.32;;
71856;SDS011;63344;46.980;28.882;2024-01-06T04:12:46;13.95;;;6.65;;
71856;SDS011;63344;46.980;28.882;2024-01-06T04:15:16;15.23;;;6.57;;
71856;SDS011;63344;46.980;28.882;2024-01-06T04:17:44;13.98;;;6.80;;
71856;SDS011;63344;46.980;28.882;2024-01-06T04:20:15;14.23;;;6.95;;
71856;SDS011;63344;46.980;28.882;2024-01-06T04:22:42;15.48;;;6.93;;
71856;SDS011;63344;46.980;28.882;2024-01-06T04:25:11;15.32;;;8.07;;
71856;SDS011;63344;46.980;28.882;2024-01-06T04:27:39;14.65;;;6.65;;
71856;SDS011;63344;46.980;28.882;2024-01-06T04:30:09;13.57;;;6.53;;
71856;SDS011;63344;46.980;28.882;2024-01-06T04:32:37;16.13;;;6.85;;
71856;SDS011;63344;46.980;28.882;2024-01-06T04:35:04;22.50;;;8.90;;
71856;SDS011;63344;46.980;28.882;2024-01-06T04:37:33;19.48;;;7.65;;
71856;SDS011;63344;46.980;28.882;2024-01-06T04:40:01;17.27;;;7.65;;
71856;SDS011;63344;46.980;28.882;2024-01-06T04:42:29;14.98;;;7.43;;
71856;SDS011;63344;46.980;28.882;2024-01-06T04:44:58;15.30;;;7.30;;
71856;SDS011;63344;46.980;28.882;2024-01-06T04:47:26;16.75;;;7.93;;
71856;SDS011;63344;46.980;28.882;2024-01-06T04:49:58;17.20;;;8.45;;
71856;SDS011;63344;46.980;28.882;2024-01-06T04:52:25;16.05;;;8.30;;
71856;SDS011;63344;46.980;28.882;2024-01-06T04:54:53;16.85;;;8.40;;
71856;SDS011;63344;46.980;28.882;2024-01-06T04:57:20;20.40;;;8.13;;
71856;SDS011;63344;46.980;28.882;2024-01-06T04:59:48;19.83;;;8.95;;
71856;SDS011;63344;46.980;28.882;2024-01-06T05:05:23;19.83;;;7.80;;
71856;SDS011;63344;46.980;28.882;2024-01-06T05:07:50;15.90;;;8.32;;
71856;SDS011;63344;46.980;28.882;2024-01-06T05:10:18;13.55;;;7.40;;
71856;SDS011;63344;46.980;28.882;2024-01-06T05:12:45;18.17;;;7.47;;
71856;SDS011;63344;46.980;28.882;2024-01-06T05:15:14;15.45;;;7.53;;
71856;SDS011;63344;46.980;28.882;2024-01-06T05:17:41;15.55;;;7.10;;
71856;SDS011;63344;46.980;28.882;2024-01-06T05:20:08;14.82;;;6.47;;
71856;SDS011;63344;46.980;28.882;2024-01-06T05:22:35;15.82;;;6.75;;
71856;SDS011;63344;46.980;28.882;2024-01-06T05:25:03;19.55;;;8.90;;
71856;SDS011;63344;46.980;28.882;2024-01-06T05:27:44;16.42;;;7.88;;
71856;SDS011;63344;46.980;28.882;2024-01-06T05:30:22;19.25;;;8.20;;
71856;SDS011;63344;46.980;28.882;2024-01-06T05:32:50;15.73;;;7.45;;
71856;SDS011;63344;46.980;28.882;2024-01-06T05:35:41;17.98;;;7.72;;
71856;SDS011;63344;46.980;28.882;2024-01-06T05:38:11;15.35;;;7.47;;
71856;SDS011;63344;46.980;28.882;2024-01-06T05:40:39;17.77;;;8.18;;
71856;SDS011;63344;46.980;28.882;2024-01-06T05:43:06;14.95;;;7.13;;
71856;SDS011;63344;46.980;28.882;2024-01-06T05:45:33;16.27;;;7.07;;
71856;SDS011;63344;46.980;28.882;2024-01-06T05:48:01;15.07;;;7.25;;
71856;SDS011;63344;46.980;28.882;2024-01-06T05:50:28;17.95;;;7.75;;
71856;SDS011;63344;46.980;28.882;2024-01-06T05:52:56;17.10;;;7.50;;
71856;SDS011;63344;46.980;28.882;2024-01-06T05:55:23;15.38;;;8.07;;
71856;SDS011;63344;46.980;28.882;2024-01-06T05:57:51;13.95;;;6.88;;
71856;SDS011;63344;46.980;28.882;2024-01-06T06:00:47;14.68;;;7.05;;
71856;SDS011;63344;46.980;28.882;2024-01-06T06:03:31;15.50;;;6.95;;
71856;SDS011;63344;46.980;28.882;2024-01-06T06:06:01;19.50;;;8.70;;
71856;SDS011;63344;46.980;28.882;2024-01-06T06:08:44;14.85;;;7.22;;
71856;SDS011;63344;46.980;28.882;2024-01-06T06:11:37;17.58;;;7.15;;
71856;SDS011;63344;46.980;28.882;2024-01-06T06:14:26;14.90;;;7.43;;
71856;SDS011;63344;46.980;28.882;2024-01-06T06:16:58;17.63;;;7.72;;
71856;SDS011;63344;46.980;28.882;2024-01-06T06:19:28;19.75;;;8.20;;
71856;SDS011;63344;46.980;28.882;2024-01-06T06:22:17;17.80;;;7.25;;
71856;SDS011;63344;46.980;28.882;2024-01-06T06:24:47;20.27;;;8.40;;
71856;SDS011;63344;46.980;28.882;2024-01-06T06:27:25;13.73;;;6.47;;
71856;SDS011;63344;46.980;28.882;2024-01-06T06:33:45;16.17;;;6.28;;
71856;SDS011;63344;46.980;28.882;2024-01-06T06:36:14;18.77;;;7.85;;
71856;SDS011;63344;46.980;28.882;2024-01-06T06:38:41;21.60;;;8.18;;
71856;SDS011;63344;46.980;28.882;2024-01-06T06:44:08;20.65;;;8.27;;
71856;SDS011;63344;46.980;28.882;2024-01-06T06:46:35;16.85;;;7.90;;
71856;SDS011;63344;46.980;28.882;2024-01-06T06:49:02;22.55;;;8.18;;
71856;SDS011;63344;46.980;28.882;2024-01-06T06:51:59;24.70;;;9.13;;
71856;SDS011;63344;46.980;28.882;2024-01-06T06:54:41;23.55;;;8.73;;
71856;SDS011;63344;46.980;28.882;2024-01-06T06:57:25;22.55;;;9.90;;
71856;SDS011;63344;46.980;28.882;2024-01-06T06:59:52;23.17;;;9.48;;
71856;SDS011;63344;46.980;28.882;2024-01-06T07:02:40;22.83;;;9.65;;
71856;SDS011;63344;46.980;28.882;2024-01-06T07:05:09;23.08;;;10.05;;
71856;SDS011;63344;46.980;28.882;2024-01-06T07:10:25;22.75;;;9.00;;
71856;SDS011;63344;46.980;28.882;2024-01-06T07:12:52;25.05;;;9.77;;
71856;SDS011;63344;46.980;28.882;2024-01-06T07:15:23;25.70;;;9.88;;
71856;SDS011;63344;46.980;28.882;2024-01-06T07:18:07;27.05;;;10.98;;
71856;SDS011;63344;46.980;28.882;2024-01-06T07:20:39;27.73;;;10.63;;
71856;SDS011;63344;46.980;28.882;2024-01-06T07:23:06;29.15;;;11.02;;
71856;SDS011;63344;46.980;28.882;2024-01-06T07:25:34;25.45;;;11.02;;
71856;SDS011;63344;46.980;28.882;2024-01-06T07:28:02;31.17;;;12.48;;
71856;SDS011;63344;46.980;28.882;2024-01-06T07:31:00;26.33;;;10.65;;
71856;SDS011;63344;46.980;28.882;2024-01-06T07:33:48;28.10;;;11.30;;
71856;SDS011;63344;46.980;28.882;2024-01-06T07:36:21;31.15;;;10.43;;
71856;SDS011;63344;46.980;28.882;2024-01-06T07:39:14;24.80;;;8.85;;
71856;SDS011;63344;46.980;28.882;2024-01-06T07:41:42;27.42;;;11.68;;
71856;SDS011;63344;46.980;28.882;2024-01-06T07:44:12;32.00;;;11.65;;
71856;SDS011;63344;46.980;28.882;2024-01-06T07:47:18;35.63;;;12.38;;
71856;SDS011;63344;46.980;28.882;2024-01-06T07:50:24;29.30;;;11.20;;
71856;SDS011;63344;46.980;28.882;2024-01-06T07:53:06;32.55;;;11.93;;
71856;SDS011;63344;46.980;28.882;2024-01-06T07:56:04;38.00;;;11.80;;
71856;SDS011;63344;46.980;28.882;2024-01-06T07:59:09;31.00;;;11.32;;
71856;SDS011;63344;46.980;28.882;2024-01-06T08:01:38;28.30;;;10.95;;
71856;SDS011;63344;46.980;28.882;2024-01-06T08:04:06;41.10;;;12.32;;
71856;SDS011;63344;46.980;28.882;2024-01-06T08:06:38;30.92;;;11.32;;
71856;SDS011;63344;46.980;28.882;2024-01-06T08:09:05;34.80;;;11.93;;
71856;SDS011;63344;46.980;28.882;2024-01-06T08:11:34;36.47;;;11.95;;
71856;SDS011;63344;46.980;28.882;2024-01-06T08:14:01;31.88;;;12.85;;
71856;SDS011;63344;46.980;28.882;2024-01-06T08:16:29;30.95;;;12.57;;
71856;SDS011;63344;46.980;28.882;2024-01-06T08:18:56;32.65;;;12.55;;
71856;SDS011;63344;46.980;28.882;2024-01-06T08:21:26;32.08;;;12.95;;
71856;SDS011;63344;46.980;28.882;2024-01-06T08:24:18;39.92;;;12.65;;
71856;SDS011;63344;46.980;28.882;2024-01-06T08:26:47;38.50;;;13.25;;
71856;SDS011;63344;46.980;28.882;2024-01-06T08:29:14;36.10;;;13.23;;
71856;SDS011;63344;46.980;28.882;2024-01-06T08:32:00;38.45;;;13.18;;
71856;SDS011;63344;46.980;28.882;2024-01-06T08:34:29;30.30;;;10.57;;
71856;SDS011;63344;46.980;28.882;2024-01-06T08:36:59;29.83;;;11.38;;
71856;SDS011;63344;46.980;28.882;2024-01-06T08:39:28;38.08;;;11.95;;
71856;SDS011;63344;46.980;28.882;2024-01-06T08:41:56;31.33;;;10.57;;
71856;SDS011;63344;46.980;28.882;2024-01-06T08:44:29;28.48;;;10.18;;
71856;SDS011;63344;46.980;28.882;2024-01-06T08:46:56;27.92;;;10.60;;
71856;SDS011;63344;46.980;28.882;2024-01-06T08:49:31;29.73;;;10.00;;
71856;SDS011;63344;46.980;28.882;2024-01-06T08:51:59;37.10;;;11.65;;
71856;SDS011;63344;46.980;28.882;2024-01-06T08:54:27;29.83;;;9.52;;
71856;SDS011;63344;46.980;28.882;2024-01-06T08:56:54;25.48;;;9.68;;
71856;SDS011;63344;46.980;28.882;2024-01-06T08:59:22;33.53;;;10.80;;
71856;SDS011;63344;46.980;28.882;2024-01-06T09:01:49;26.15;;;10.23;;
71856;SDS011;63344;46.980;28.882;2024-01-06T09:04:18;21.45;;;8.75;;
71856;SDS011;63344;46.980;28.882;2024-01-06T09:06:45;26.67;;;10.65;;
71856;SDS011;63344;46.980;28.882;2024-01-06T09:09:14;34.17;;;12.57;;
71856;SDS011;63344;46.980;28.882;2024-01-06T09:12:56;59.73;;;25.30;;
71856;SDS011;63344;46.980;28.882;2024-01-06T09:15:25;41.92;;;18.38;;
71856;SDS011;63344;46.980;28.882;2024-01-06T09:17:55;35.20;;;15.40;;
71856;SDS011;63344;46.980;28.882;2024-01-06T09:20:23;41.58;;;15.27;;
71856;SDS011;63344;46.980;28.882;2024-01-06T09:22:50;25.42;;;10.60;;
71856;SDS011;63344;46.980;28.882;2024-01-06T09:25:21;28.15;;;14.25;;
71856;SDS011;63344;46.980;28.882;2024-01-06T09:27:53;25.98;;;11.10;;
71856;SDS011;63344;46.980;28.882;2024-01-06T09:30:57;22.58;;;9.90;;
71856;SDS011;63344;46.980;28.882;2024-01-06T09:34:38;19.48;;;10.68;;
71856;SDS011;63344;46.980;28.882;2024-01-06T09:37:37;19.80;;;9.93;;
71856;SDS011;63344;46.980;28.882;2024-01-06T09:40:06;22.58;;;9.18;;
71856;SDS011;63344;46.980;28.882;2024-01-06T09:42:38;18.58;;;9.10;;
71856;SDS011;63344;46.980;28.882;2024-01-06T09:45:07;15.95;;;8.70;;
71856;SDS011;63344;46.980;28.882;2024-01-06T09:47:34;16.92;;;9.32;;
71856;SDS011;63344;46.980;28.882;2024-01-06T09:50:04;20.88;;;9.65;;
71856;SDS011;63344;46.980;28.882;2024-01-06T09:52:40;14.73;;;8.20;;
71856;SDS011;63344;46.980;28.882;2024-01-06T09:55:11;18.88;;;9.75;;
71856;SDS011;63344;46.980;28.882;2024-01-06T09:57:39;15.23;;;8.55;;
71856;SDS011;63344;46.980;28.882;2024-01-06T10:00:07;16.35;;;8.75;;
71856;SDS011;63344;46.980;28.882;2024-01-06T10:02:39;16.98;;;9.35;;
71856;SDS011;63344;46.980;28.882;2024-01-06T10:05:08;15.55;;;8.85;;
71856;SDS011;63344;46.980;28.882;2024-01-06T10:07:41;16.63;;;8.38;;
71856;SDS011;63344;46.980;28.882;2024-01-06T10:10:10;15.85;;;8.75;;
71856;SDS011;63344;46.980;28.882;2024-01-06T10:15:35;14.02;;;7.97;;
71856;SDS011;63344;46.980;28.882;2024-01-06T10:18:03;16.73;;;8.10;;
71856;SDS011;63344;46.980;28.882;2024-01-06T10:20:32;14.40;;;8.15;;
71856;SDS011;63344;46.980;28.882;2024-01-06T10:23:04;13.85;;;7.60;;
71856;SDS011;63344;46.980;28.882;2024-01-06T10:25:46;16.10;;;8.68;;
71856;SDS011;63344;46.980;28.882;2024-01-06T10:30:56;13.23;;;7.60;;
71856;SDS011;63344;46.980;28.882;2024-01-06T10:33:25;9.88;;;6.30;;
71856;SDS011;63344;46.980;28.882;2024-01-06T10:35:53;13.60;;;7.97;;
71856;SDS011;63344;46.980;28.882;2024-01-06T10:38:25;15.07;;;8.32;;
71856;SDS011;63344;46.980;28.882;2024-01-06T10:41:00;14.23;;;8.68;;
71856;SDS011;63344;46.980;28.882;2024-01-06T10:43:33;15.48;;;8.48;;
71856;SDS011;63344;46.980;28.882;2024-01-06T10:46:04;16.35;;;8.63;;
71856;SDS011;63344;46.980;28.882;2024-01-06T10:48:32;13.40;;;8.63;;
71856;SDS011;63344;46.980;28.882;2024-01-06T10:51:02;14.27;;;7.40;;
71856;SDS011;63344;46.980;28.882;2024-01-06T10:53:34;15.82;;;8.82;;
71856;SDS011;63344;46.980;28.882;2024-01-06T10:56:06;16.35;;;9.13;;
71856;SDS011;63344;46.980;28.882;2024-01-06T10:58:35;14.68;;;8.95;;
71856;SDS011;63344;46.980;28.882;2024-01-06T11:01:10;14.85;;;8.18;;
71856;SDS011;63344;46.980;28.882;2024-01-06T11:03:41;13.20;;;7.70;;
71856;SDS011;63344;46.980;28.882;2024-01-06T11:06:10;15.80;;;8.43;;
71856;SDS011;63344;46.980;28.882;2024-01-06T11:08:47;15.43;;;7.78;;
71856;SDS011;63344;46.980;28.882;2024-01-06T11:11:20;12.43;;;8.07;;
71856;SDS011;63344;46.980;28.882;2024-01-06T11:13:51;17.05;;;8.23;;
71856;SDS011;63344;46.980;28.882;2024-01-06T11:16:33;15.32;;;8.30;;
71856;SDS011;63344;46.980;28.882;2024-01-06T11:19:41;14.20;;;7.65;;
71856;SDS011;63344;46.980;28.882;2024-01-06T11:22:25;12.95;;;7.60;;
71856;SDS011;63344;46.980;28.882;2024-01-06T11:25:07;13.88;;;8.05;;
71856;SDS011;63344;46.980;28.882;2024-01-06T11:27:39;14.35;;;8.15;;
71856;SDS011;63344;46.980;28.882;2024-01-06T11:30:09;15.07;;;8.23;;
71856;SDS011;63344;46.980;28.882;2024-01-06T11:32:53;14.27;;;8.82;;
71856;SDS011;63344;46.980;28.882;2024-01-06T11:35:28;13.43;;;8.52;;
71856;SDS011;63344;46.980;28.882;2024-01-06T11:37:57;14.05;;;8.73;;
71856;SDS011;63344;46.980;28.882;2024-01-06T11:40:31;13.57;;;6.97;;
71856;SDS011;63344;46.980;28.882;2024-01-06T11:45:32;14.73;;;8.25;;
71856;SDS011;63344;46.980;28.882;2024-01-06T11:48:03;12.13;;;7.88;;
71856;SDS011;63344;46.980;28.882;2024-01-06T11:50:38;15.02;;;8.10;;
71856;SDS011;63344;46.980;28.882;2024-01-06T11:53:07;15.15;;;9.02;;
71856;SDS011;63344;46.980;28.882;2024-01-06T11:55:39;13.90;;;8.90;;
71856;SDS011;63344;46.980;28.882;2024-01-06T11:58:07;17.65;;;9.70;;
71856;SDS011;63344;46.980;28.882;2024-01-06T12:00:34;13.82;;;9.27;;
71856;SDS011;63344;46.980;28.882;2024-01-06T12:03:15;15.88;;;8.75;;
71856;SDS011;63344;46.980;28.882;2024-01-06T12:05:42;16.55;;;9.13;;
71856;SDS011;63344;46.980;28.882;2024-01-06T12:08:10;16.33;;;8.48;;
71856;SDS011;63344;46.980;28.882;2024-01-06T12:10:38;15.48;;;8.90;;
71856;SDS011;63344;46.980;28.882;2024-01-06T12:13:06;15.77;;;10.10;;
71856;SDS011;63344;46.980;28.882;2024-01-06T12:15:39;16.73;;;8.82;;
71856;SDS011;63344;46.980;28.882;2024-01-06T12:18:08;14.48;;;9.18;;
71856;SDS011;63344;46.980;28.882;2024-01-06T12:20:36;13.77;;;8.93;;
71856;SDS011;63344;46.980;28.882;2024-01-06T12:23:04;14.40;;;9.05;;
71856;SDS011;63344;46.980;28.882;2024-01-06T12:25:34;13.55;;;8.07;;
71856;SDS011;63344;46.980;28.882;2024-01-06T12:28:07;12.13;;;7.65;;
71856;SDS011;63344;46.980;28.882;2024-01-06T12:30:37;13.02;;;7.68;;
71856;SDS011;63344;46.980;28.882;2024-01-06T12:33:06;14.23;;;8.30;;
71856;SDS011;63344;46.980;28.882;2024-01-06T12:35:34;10.90;;;6.50;;
71856;SDS011;63344;46.980;28.882;2024-01-06T12:38:03;10.75;;;6.57;;
71856;SDS011;63344;46.980;28.882;2024-01-06T12:40:35;14.25;;;8.32;;
71856;SDS011;63344;46.980;28.882;2024-01-06T12:43:05;16.10;;;8.88;;
71856;SDS011;63344;46.980;28.882;2024-01-06T12:45:35;13.10;;;8.85;;
71856;SDS011;63344;46.980;28.882;2024-01-06T12:48:16;14.73;;;8.48;;
71856;SDS011;63344;46.980;28.882;2024-01-06T12:50:44;18.55;;;9.35;;
71856;SDS011;63344;46.980;28.882;2024-01-06T12:53:13;14.15;;;9.38;;
71856;SDS011;63344;46.980;28.882;2024-01-06T12:55:42;16.42;;;8.45;;
71856;SDS011;63344;46.980;28.882;2024-01-06T12:58:10;16.98;;;9.15;;
71856;SDS011;63344;46.980;28.882;2024-01-06T13:00:38;17.52;;;9.48;;
71856;SDS011;63344;46.980;28.882;2024-01-06T13:05:35;15.35;;;8.90;;
71856;SDS011;63344;46.980;28.882;2024-01-06T13:08:06;12.48;;;8.23;;
71856;SDS011;63344;46.980;28.882;2024-01-06T13:10:33;17.02;;;9.57;;
71856;SDS011;63344;46.980;28.882;2024-01-06T13:13:02;17.80;;;9.13;;
71856;SDS011;63344;46.980;28.882;2024-01-06T13:15:30;12.60;;;8.23;;
71856;SDS011;63344;46.980;28.882;2024-01-06T13:17:59;15.68;;;9.45;;
71856;SDS011;63344;46.980;28.882;2024-01-06T13:20:28;14.57;;;7.80;;
71856;SDS011;63344;46.980;28.882;2024-01-06T13:22:56;15.50;;;8.65;;
71856;SDS011;63344;46.980;28.882;2024-01-06T13:25:23;15.70;;;9.23;;
71856;SDS011;63344;46.980;28.882;2024-01-06T13:27:51;18.25;;;9.93;;
71856;SDS011;63344;46.980;28.882;2024-01-06T13:30:20;17.15;;;8.73;;
71856;SDS011;63344;46.980;28.882;2024-01-06T13:32:48;19.33;;;11.50;;
71856;SDS011;63344;46.980;28.882;2024-01-06T13:35:41;30.85;;;10.23;;
71856;SDS011;63344;46.980;28.882;2024-01-06T13:38:42;34.78;;;10.15;;
71856;SDS011;63344;46.980;28.882;2024-01-06T13:41:11;28.65;;;10.30;;
71856;SDS011;63344;46.980;28.882;2024-01-06T13:43:41;35.05;;;12.30;;
71856;SDS011;63344;46.980;28.882;2024-01-06T13:46:10;34.90;;;12.20;;
71856;SDS011;63344;46.980;28.882;2024-01-06T13:48:40;24.02;;;12.18;;
71856;SDS011;63344;46.980;28.882;2024-01-06T13:51:08;20.52;;;9.85;;
71856;SDS011;63344;46.980;28.882;2024-01-06T13:53:36;34.28;;;11.52;;
71856;SDS011;63344;46.980;28.882;2024-01-06T13:56:04;34.80;;;10.77;;
71856;SDS011;63344;46.980;28.882;2024-01-06T13:58:32;19.88;;;11.43;;
71856;SDS011;63344;46.980;28.882;2024-01-06T14:01:05;24.55;;;12.63;;
71856;SDS011;63344;46.980;28.882;2024-01-06T14:03:33;29.42;;;15.18;;
71856;SDS011;63344;46.980;28.882;2024-01-06T14:06:01;29.02;;;16.38;;
71856;SDS011;63344;46.980;28.882;2024-01-06T14:08:29;23.70;;;15.45;;
71856;SDS011;63344;46.980;28.882;2024-01-06T14:10:57;25.77;;;15.10;;
71856;SDS011;63344;46.980;28.882;2024-01-06T14:13:24;25.90;;;14.68;;
71856;SDS011;63344;46.980;28.882;2024-01-06T14:15:56;27.30;;;14.57;;
71856;SDS011;63344;46.980;28.882;2024-01-06T14:18:24;27.75;;;14.20;;
71856;SDS011;63344;46.980;28.882;2024-01-06T14:20:52;41.28;;;15.02;;
71856;SDS011;63344;46.980;28.882;2024-01-06T14:23:21;21.65;;;13.10;;
71856;SDS011;63344;46.980;28.882;2024-01-06T14:25:49;23.80;;;15.13;;
71856;SDS011;63344;46.980;28.882;2024-01-06T14:28:17;27.50;;;14.85;;
71856;SDS011;63344;46.980;28.882;2024-01-06T14:30:45;27.45;;;15.02;;
71856;SDS011;63344;46.980;28.882;2024-01-06T14:33:13;29.40;;;14.23;;
71856;SDS011;63344;46.980;28.882;2024-01-06T14:35:41;27.00;;;16.13;;
71856;SDS011;63344;46.980;28.882;2024-01-06T14:38:09;28.48;;;16.23;;
71856;SDS011;63344;46.980;28.882;2024-01-06T14:41:51;28.15;;;13.45;;
71856;SDS011;63344;46.980;28.882;2024-01-06T14:49:39;22.77;;;13.23;;
71856;SDS011;63344;46.980;28.882;2024-01-06T14:52:43;25.10;;;13.82;;
71856;SDS011;63344;46.980;28.882;2024-01-06T14:56:13;22.08;;;12.30;;
71856;SDS011;63344;46.980;28.882;2024-01-06T14:59:12;30.90;;;15.88;;
71856;SDS011;63344;46.980;28.882;2024-01-06T15:02:19;27.30;;;14.10;;
71856;SDS011;63344;46.980;28.882;2024-01-06T15:05:36;20.65;;;13.18;;
71856;SDS011;63344;46.980;28.882;2024-01-06T15:08:27;23.80;;;12.73;;
71856;SDS011;63344;46.980;28.882;2024-01-06T15:11:36;24.00;;;11.85;;
71856;SDS011;63344;46.980;28.882;2024-01-06T15:14:06;22.92;;;12.88;;
71856;SDS011;63344;46.980;28.882;2024-01-06T15:16:35;39.92;;;23.38;;
71856;SDS011;63344;46.980;28.882;2024-01-06T15:19:04;29.60;;;16.90;;
71856;SDS011;63344;46.980;28.882;2024-01-06T15:21:33;23.38;;;13.75;;
71856;SDS011;63344;46.980;28.882;2024-01-06T15:24:04;25.98;;;14.15;;
71856;SDS011;63344;46.980;28.882;2024-01-06T15:26:42;28.52;;;13.95;;
71856;SDS011;63344;46.980;28.882;2024-01-06T15:29:41;27.52;;;13.32;;
71856;SDS011;63344;46.980;28.882;2024-01-06T15:32:18;24.52;;;14.05;;